Portada
METAR-TAF:

METAR-TAF

Aeroports :

Castries, Saint Lucia

latitud: 14-01N, longitud: 061-00W, altitud: 2 m

Observació

L'informe es va fer fa 5 hores i 44 minuts, a les 00:00 UTC
Vent 8 kt del Est
Temperatura 28°C
Humitat 74%
Pressió 1013 hPa
Visibilitat 10 km o més
Cel ennuvolat a una alçada de 2300 ft

METAR: TLPC 270000Z 09008KT 9999 BKN023 28/23 Q1013 NOSIG

Hora: 01:44 (05:44 UTC)

Pronòstic

L'informe es va fer fa 44 minuts, a les 05:00 UTC
Pronòstic vàlid del 27 a les 06 UTC al 28 a les 06 UTC
Vent 12 kt del Est/Sud-Est amb ràfegues de 22 kt
Visibilitat 10 km o més
Núvols disperses a una alçada de 2300 ft
Núvols disperses a una alçada de 4000 ft
Temporalment
l' 27 a les 09 UTC al 27 a les 22 UTC
Visibilitat: 5000 m
Escasses núvols a una alçada de 1500 ft, Cumulonimbus.
Cel ennuvolat a una alçada de 1800 ft
Cel ennuvolat a una alçada de 4000 ft
xàfecs de pluja

TAF: TLPC 270500Z 2706/2806 12012G22KT 9999 SCT023 SCT040 TEMPO 2709/2722 5000 SHRA FEW015CB BKN018 BKN040

Observacions i pronòstics meteorològics de més de 4000 aeroports (METAR i TAF).

Les estacions disponibles són els punts grocs i vermells al mapa.

Posi el ratolí al punt desitjat per veure el nom de l'estació.

Feu clic per veure les observacions i els pronòstics meteorològics.

Per canviar el mapa: feu clic els botons verds amb una creu de color negre per apropar; al botó verd amb un guió per allunyar la imatge; o en les fletxes verdes per a mapes adjacents.


METAR-TAF: